Time;durP1;ratioP1;P1;durP2;ratioP2;P2;SDS_P1;SDS_P2;PMS_P1;PMS_P2;Temp;Humidity;BMP_temperature;BMP_pressure;BME280_temperature;BME280_humidity;BME280_pressure;Samples;Min_cycle;Max_cycle;Signal;HPM_P1;HPM_P2
2021/09/01 00:00:36;;;;;;;4.87;3.20;;;10.00;93.40;;;;;;2098249;28;20608;-63
2021/09/01 00:01:37;;;;;;;3.57;2.93;;;10.00;93.40;;;;;;2098463;28;20210;-63
2021/09/01 00:02:39;;;;;;;3.53;3.00;;;10.00;93.40;;;;;;2098335;28;20202;-63
2021/09/01 00:03:39;;;;;;;3.30;2.83;;;10.00;93.40;;;;;;2098443;28;20417;-62
2021/09/01 00:04:40;;;;;;;3.43;2.60;;;10.00;93.30;;;;;;2098224;28;20258;-63
2021/09/01 00:05:41;;;;;;;4.90;3.13;;;10.00;93.30;;;;;;2097772;28;20263;-63
2021/09/01 00:06:41;;;;;;;4.73;3.27;;;10.00;93.40;;;;;;2097685;28;20178;-63
2021/09/01 00:07:42;;;;;;;6.80;2.90;;;9.90;93.40;;;;;;2098419;28;20641;-63
2021/09/01 00:08:43;;;;;;;3.53;2.37;;;9.90;93.50;;;;;;2098322;28;20203;-63
2021/09/01 00:09:44;;;;;;;5.40;3.47;;;9.90;93.50;;;;;;2098210;28;20175;-62
2021/09/01 00:10:45;;;;;;;2.70;2.17;;;9.90;93.40;;;;;;2098318;28;20529;-63
2021/09/01 00:11:45;;;;;;;4.80;3.03;;;9.90;93.40;;;;;;2098394;28;20188;-63
2021/09/01 00:12:47;;;;;;;5.53;3.33;;;9.90;93.60;;;;;;2097802;28;20240;-63
2021/09/01 00:13:49;;;;;;;5.88;3.40;;;9.90;93.60;;;;;;2098531;28;20186;-62
2021/09/01 00:14:50;;;;;;;5.57;3.65;;;9.90;93.80;;;;;;2098210;28;20175;-62
2021/09/01 00:15:51;;;;;;;4.60;4.07;;;9.90;94.00;;;;;;2098343;28;20663;-63
2021/09/01 00:16:51;;;;;;;6.90;3.60;;;9.90;94.20;;;;;;2097579;28;20186;-63
2021/09/01 00:17:52;;;;;;;6.53;3.63;;;9.90;94.30;;;;;;2097843;28;20205;-62
2021/09/01 00:19:02;;;;;;;7.40;3.33;;;9.90;94.20;;;;;;2097311;28;20675;-63
2021/09/01 00:20:07;;;;;;;4.82;3.58;;;10.00;94.40;;;;;;2097917;28;20708;-62
2021/09/01 00:21:08;;;;;;;7.47;4.90;;;10.00;94.40;;;;;;2098206;28;20217;-63
2021/09/01 00:22:09;;;;;;;5.43;4.00;;;10.00;94.40;;;;;;2097658;28;20218;-63
2021/09/01 00:23:14;;;;;;;7.60;4.67;;;10.10;94.40;;;;;;2097635;28;20706;-63
2021/09/01 00:24:16;;;;;;;5.88;4.13;;;10.10;94.50;;;;;;2098342;28;20164;-63
2021/09/01 00:25:16;;;;;;;8.40;3.90;;;10.20;94.40;;;;;;2098107;28;20676;-63
2021/09/01 00:26:18;;;;;;;5.87;3.77;;;10.20;94.50;;;;;;2098256;28;20189;-63
2021/09/01 00:27:19;;;;;;;6.93;5.20;;;10.20;94.40;;;;;;2098242;28;20179;-62
2021/09/01 00:28:19;;;;;;;6.10;4.10;;;10.30;94.50;;;;;;2098227;28;20194;-63
2021/09/01 00:29:20;;;;;;;8.57;4.70;;;10.30;94.50;;;;;;2097822;28;20194;-63
2021/09/01 00:30:21;;;;;;;6.60;4.40;;;10.30;94.40;;;;;;2098418;28;20639;-63
2021/09/01 00:31:22;;;;;;;7.37;4.70;;;10.30;94.50;;;;;;2098060;28;20198;-63
2021/09/01 00:32:23;;;;;;;7.60;5.07;;;10.40;94.60;;;;;;2098291;28;20191;-63
2021/09/01 00:33:23;;;;;;;10.00;4.60;;;10.40;94.60;;;;;;2098128;28;20544;-63
2021/09/01 00:34:24;;;;;;;8.43;4.23;;;10.40;94.60;;;;;;2098207;28;20274;-63
2021/09/01 00:35:25;;;;;;;6.67;4.87;;;10.40;94.60;;;;;;2098154;28;20267;-63
2021/09/01 00:36:25;;;;;;;7.20;4.20;;;10.40;94.60;;;;;;2098303;28;20239;-63
2021/09/01 00:37:26;;;;;;;9.77;4.93;;;10.40;94.60;;;;;;2098047;28;20311;-63
2021/09/01 00:38:27;;;;;;;6.97;4.80;;;10.40;94.60;;;;;;2097591;28;20176;-63
2021/09/01 00:39:27;;;;;;;5.33;3.77;;;10.40;94.60;;;;;;2097304;28;20195;-63
2021/09/01 00:40:31;;;;;;;7.70;4.50;;;10.40;94.60;;;;;;2098296;28;20542;-63
2021/09/01 00:41:31;;;;;;;7.43;4.43;;;10.30;94.50;;;;;;2098242;28;20185;-63
2021/09/01 00:42:36;;;;;;;8.13;4.53;;;10.30;94.40;;;;;;2098124;28;20203;-63
2021/09/01 00:43:37;;;;;;;6.50;3.83;;;10.30;94.30;;;;;;2098072;28;20207;-62
2021/09/01 00:44:39;;;;;;;6.23;3.87;;;10.20;94.20;;;;;;2097458;28;20179;-63
2021/09/01 00:45:45;;;;;;;6.13;4.25;;;10.20;94.20;;;;;;2097506;28;20700;-63
2021/09/01 00:46:46;;;;;;;6.15;4.50;;;10.20;94.20;;;;;;2098190;28;20168;-63
2021/09/01 00:47:47;;;;;;;5.38;4.18;;;10.10;94.10;;;;;;2097500;28;20189;-63
2021/09/01 00:48:50;;;;;;;9.33;3.97;;;10.10;94.20;;;;;;2089155;28;20178;-63
2021/09/01 00:49:51;;;;;;;6.10;4.30;;;10.10;94.20;;;;;;2097637;28;20265;-63
2021/09/01 00:50:56;;;;;;;8.43;4.57;;;10.10;94.20;;;;;;2098095;28;20324;-62
2021/09/01 00:51:58;;;;;;;6.70;4.82;;;10.00;94.30;;;;;;2098123;28;20175;-62
2021/09/01 00:52:59;;;;;;;7.88;4.38;;;10.00;94.50;;;;;;2098342;28;20266;-62
2021/09/01 00:54:00;;;;;;;7.43;5.17;;;10.00;94.50;;;;;;2098135;28;20175;-63
2021/09/01 00:55:03;;;;;;;6.77;4.60;;;10.00;94.50;;;;;;2098145;28;20240;-63
2021/09/01 00:56:05;;;;;;;9.23;4.50;;;10.00;94.50;;;;;;2098007;28;20180;-63
2021/09/01 00:57:07;;;;;;;8.45;6.05;;;10.00;95.00;;;;;;2097982;28;20186;-63
2021/09/01 00:58:09;;;;;;;11.25;6.45;;;10.00;94.50;;;;;;2097406;28;20569;-63
2021/09/01 00:59:14;;;;;;;12.98;5.32;;;10.00;94.70;;;;;;2097267;28;20187;-63
2021/09/01 01:00:26;;;;;;;8.85;6.22;;;10.10;94.80;;;;;;2097505;28;20180;-62
2021/09/01 01:01:27;;;;;;;8.18;5.57;;;10.10;94.80;;;;;;2097719;28;20244;-63
2021/09/01 01:02:27;;;;;;;11.83;7.03;;;10.10;94.90;;;;;;2098157;28;20194;-62
2021/09/01 01:03:28;;;;;;;5.00;3.63;;;10.00;94.90;;;;;;2098067;28;20517;-63
2021/09/01 01:04:30;;;;;;;9.67;5.80;;;10.10;94.90;;;;;;2098023;28;20179;-63
2021/09/01 01:05:31;;;;;;;10.15;5.45;;;10.10;95.10;;;;;;2098022;28;20183;-62
2021/09/01 01:06:33;;;;;;;11.37;5.73;;;10.10;95.10;;;;;;2100126;28;20170;-63
2021/09/01 01:07:34;;;;;;;9.70;6.22;;;10.10;95.00;;;;;;2098029;28;20184;-63
2021/09/01 01:08:35;;;;;;;9.60;5.60;;;10.10;95.10;;;;;;2097388;28;20179;-63
2021/09/01 01:09:38;;;;;;;10.00;5.67;;;10.10;95.60;;;;;;2097128;28;20171;-62
2021/09/01 01:10:39;;;;;;;9.93;5.32;;;10.10;95.00;;;;;;2097950;28;20740;-64
2021/09/01 01:12:12;;;;;;;11.05;6.00;;;10.10;94.80;;;;;;2098115;28;20783;-62
2021/09/01 01:13:16;;;;;;;10.45;6.70;;;10.10;94.80;;;;;;2098180;28;20186;-63
2021/09/01 01:14:16;;;;;;;8.52;6.72;;;10.10;94.70;;;;;;2098183;28;20185;-63
2021/09/01 01:15:17;;;;;;;11.43;6.83;;;10.10;94.70;;;;;;2098169;28;20185;-63
2021/09/01 01:16:23;;;;;;;11.30;5.80;;;10.10;94.90;;;;;;2098117;28;20240;-61
2021/09/01 01:17:24;;;;;;;8.90;6.68;;;10.10;94.90;;;;;;2097953;28;20195;-62
2021/09/01 01:18:25;;;;;;;12.20;6.90;;;10.10;94.90;;;;;;2098139;28;20719;-63
2021/09/01 01:19:26;;;;;;;9.70;6.82;;;10.10;95.00;;;;;;2097645;28;20190;-62
2021/09/01 01:20:26;;;;;;;10.33;6.47;;;10.10;95.10;;;;;;2098053;28;20225;-63
2021/09/01 01:21:29;;;;;;;10.50;6.27;;;10.20;95.10;;;;;;2097791;28;20888;-63
2021/09/01 01:22:29;;;;;;;11.98;6.75;;;10.20;95.20;;;;;;2098007;28;20176;-63
2021/09/01 01:23:30;;;;;;;11.10;7.37;;;10.20;95.20;;;;;;2097938;28;20266;-62
2021/09/01 01:24:50;;;;;;;8.57;6.27;;;10.30;95.20;;;;;;2098171;28;20175;-63
2021/09/01 01:25:51;;;;;;;9.73;5.20;;;10.30;95.40;;;;;;2099725;28;20215;-62
2021/09/01 01:26:52;;;;;;;12.97;8.13;;;10.40;95.40;;;;;;2099530;28;20187;-62
2021/09/01 01:27:52;;;;;;;10.10;5.93;;;10.40;95.30;;;;;;2099641;28;20186;-63
2021/09/01 01:28:56;;;;;;;12.07;7.63;;;10.50;95.30;;;;;;2099464;28;20205;-63
2021/09/01 01:30:08;;;;;;;12.20;6.93;;;10.50;95.20;;;;;;2099502;28;20179;-62
2021/09/01 01:31:09;;;;;;;15.27;8.02;;;10.60;95.10;;;;;;2099682;28;20202;-63
2021/09/01 01:32:10;;;;;;;10.20;7.27;;;10.60;95.10;;;;;;2099583;28;20645;-62
2021/09/01 01:33:11;;;;;;;13.80;5.93;;;10.50;95.10;;;;;;2099707;28;20183;-62
2021/09/01 01:34:14;;;;;;;12.23;8.07;;;10.60;95.10;;;;;;2099544;28;20178;-63
2021/09/01 01:35:27;;;;;;;9.73;5.78;;;10.60;95.10;;;;;;2099624;28;20742;-65
2021/09/01 01:36:28;;;;;;;13.63;6.63;;;10.60;95.00;;;;;;2099574;28;20194;-63
2021/09/01 01:37:28;;;;;;;8.30;5.10;;;10.70;94.90;;;;;;2099407;28;20211;-62
2021/09/01 01:38:31;;;;;;;11.53;6.50;;;10.70;94.90;;;;;;2099687;28;20531;-63
2021/09/01 01:39:32;;;;;;;10.50;6.80;;;10.70;94.90;;;;;;2099272;28;20217;-63
2021/09/01 01:40:34;;;;;;;9.07;6.37;;;10.70;95.00;;;;;;2099418;28;20308;-61
2021/09/01 01:41:34;;;;;;;10.65;7.13;;;10.60;95.00;;;;;;2099493;28;20642;-63
2021/09/01 01:42:40;;;;;;;13.43;7.60;;;10.70;95.10;;;;;;2099430;28;20200;-63
2021/09/01 01:43:45;;;;;;;10.35;6.28;;;10.70;95.10;;;;;;2099429;28;20210;-63
2021/09/01 01:44:46;;;;;;;11.70;7.22;;;10.70;95.10;;;;;;2099453;28;20597;-63
2021/09/01 01:45:47;;;;;;;11.67;6.60;;;10.70;95.20;;;;;;2099480;28;20179;-63
2021/09/01 01:46:47;;;;;;;13.03;6.97;;;10.70;95.10;;;;;;2099379;28;20543;-63
2021/09/01 01:47:48;;;;;;;10.27;6.80;;;10.70;95.10;;;;;;2099535;28;20176;-63
2021/09/01 01:48:49;;;;;;;12.27;7.23;;;10.80;95.00;;;;;;2098652;28;20210;-63
2021/09/01 01:49:50;;;;;;;10.40;5.82;;;10.80;95.10;;;;;;2090521;28;20593;-63
2021/09/01 01:50:51;;;;;;;7.70;5.83;;;10.80;95.10;;;;;;2098650;28;20223;-62
2021/09/01 01:51:51;;;;;;;10.07;7.00;;;10.80;95.10;;;;;;2099577;28;20180;-62
2021/09/01 01:52:52;;;;;;;11.03;7.07;;;10.80;95.10;;;;;;2099408;28;20183;-63
2021/09/01 01:53:53;;;;;;;11.63;6.57;;;10.90;95.00;;;;;;2099432;28;20638;-62
2021/09/01 01:54:53;;;;;;;11.77;7.23;;;10.90;95.10;;;;;;2099541;28;20184;-63
2021/09/01 01:55:54;;;;;;;13.07;7.33;;;10.90;95.10;;;;;;2099488;28;20187;-63
2021/09/01 01:56:55;;;;;;;11.13;6.70;;;11.00;95.20;;;;;;2099247;28;20199;-62
2021/09/01 01:57:56;;;;;;;11.40;6.80;;;11.00;95.10;;;;;;2099572;28;20233;-62
2021/09/01 01:58:56;;;;;;;11.83;7.07;;;11.10;95.10;;;;;;2099016;28;20269;-63
2021/09/01 01:59:57;;;;;;;12.13;6.07;;;11.10;95.10;;;;;;2099426;28;20175;-62
2021/09/01 02:00:58;;;;;;;11.70;7.53;;;11.10;95.10;;;;;;2099258;28;20196;-63
2021/09/01 02:01:58;;;;;;;13.70;7.20;;;11.10;95.00;;;;;;2099298;28;20571;-63
2021/09/01 02:02:59;;;;;;;14.00;7.13;;;11.20;95.00;;;;;;2099197;28;20199;-62
2021/09/01 02:04:00;;;;;;;12.90;6.88;;;11.10;94.80;;;;;;2099543;28;20179;-63
2021/09/01 02:05:01;;;;;;;10.53;6.90;;;11.10;94.90;;;;;;2099249;28;20175;-63
2021/09/01 02:06:02;;;;;;;9.80;7.00;;;11.10;95.00;;;;;;2099294;28;20621;-63
2021/09/01 02:07:03;;;;;;;10.23;6.67;;;11.10;94.90;;;;;;2099225;28;20183;-63
2021/09/01 02:08:04;;;;;;;10.63;7.03;;;11.20;94.90;;;;;;2098794;28;20180;-63
2021/09/01 02:09:05;;;;;;;12.80;7.25;;;11.20;94.80;;;;;;2095344;28;20207;-63
2021/09/01 02:10:08;;;;;;;13.23;7.37;;;11.20;94.80;;;;;;2099243;28;20533;-63
2021/09/01 02:11:08;;;;;;;12.43;7.05;;;11.20;94.80;;;;;;2098460;28;20195;-63
2021/09/01 02:12:09;;;;;;;11.43;7.00;;;11.20;94.80;;;;;;2098703;28;20271;-61
2021/09/01 02:13:10;;;;;;;19.00;9.83;;;11.20;94.80;;;;;;2099399;28;20262;-63
2021/09/01 02:14:10;;;;;;;16.80;9.00;;;11.20;95.10;;;;;;2099316;28;20603;-63
2021/09/01 02:15:12;;;;;;;14.93;8.67;;;11.20;95.10;;;;;;2099366;28;20180;-63
2021/09/01 02:16:12;;;;;;;9.80;6.03;;;11.20;95.00;;;;;;2098712;28;20179;-63
2021/09/01 02:17:13;;;;;;;17.10;7.87;;;11.20;94.90;;;;;;2098563;28;20612;-63
2021/09/01 02:18:14;;;;;;;14.60;7.70;;;11.10;94.90;;;;;;2099220;28;20178;-63
2021/09/01 02:19:15;;;;;;;14.00;7.47;;;11.10;94.90;;;;;;2099052;28;20594;-63
2021/09/01 02:20:16;;;;;;;14.53;8.27;;;11.10;94.90;;;;;;2099269;28;20183;-63
2021/09/01 02:21:17;;;;;;;13.57;7.70;;;11.10;94.80;;;;;;2099184;28;20567;-63
2021/09/01 02:22:18;;;;;;;9.97;6.83;;;11.20;94.90;;;;;;2099272;28;20184;-62
2021/09/01 02:23:19;;;;;;;10.23;6.72;;;11.20;94.80;;;;;;2099217;28;20195;-63
2021/09/01 02:24:19;;;;;;;13.83;8.17;;;11.20;94.80;;;;;;2099208;28;20202;-63
2021/09/01 02:25:20;;;;;;;13.67;8.23;;;11.20;94.80;;;;;;2099138;28;20176;-63
2021/09/01 02:26:21;;;;;;;13.10;7.27;;;11.30;94.80;;;;;;2099338;28;20646;-63
2021/09/01 02:27:22;;;;;;;12.47;7.70;;;11.30;94.80;;;;;;2099046;28;20176;-62
2021/09/01 02:28:23;;;;;;;14.67;7.97;;;11.30;94.70;;;;;;2099142;28;20271;-63
2021/09/01 02:29:23;;;;;;;15.87;9.43;;;11.30;94.80;;;;;;2098814;28;20232;-63
2021/09/01 02:30:24;;;;;;;15.93;9.30;;;11.30;94.80;;;;;;2099171;28;20184;-62
2021/09/01 02:31:25;;;;;;;14.33;8.30;;;11.30;94.80;;;;;;2099086;28;20421;-63
2021/09/01 02:32:26;;;;;;;10.93;7.30;;;11.40;94.70;;;;;;2099149;28;20418;-62
2021/09/01 02:33:27;;;;;;;13.70;7.87;;;11.40;94.60;;;;;;2099183;28;20180;-62
2021/09/01 02:34:27;;;;;;;11.10;7.20;;;11.40;94.70;;;;;;2099054;28;20542;-63
2021/09/01 02:35:28;;;;;;;14.17;8.00;;;11.40;94.70;;;;;;2098948;28;20186;-62
2021/09/01 02:36:29;;;;;;;15.10;7.67;;;11.40;94.80;;;;;;2099226;28;20634;-62
2021/09/01 02:37:29;;;;;;;17.43;8.67;;;11.40;94.70;;;;;;2098951;28;20195;-63
2021/09/01 02:38:30;;;;;;;13.40;8.27;;;11.50;94.70;;;;;;2099199;28;20539;-62
2021/09/01 02:39:31;;;;;;;18.03;8.37;;;11.50;94.70;;;;;;2106420;28;20182;-63
2021/09/01 02:40:32;;;;;;;10.80;8.40;;;11.50;94.70;;;;;;2106815;28;20175;-63
2021/09/01 02:41:33;;;;;;;16.38;8.27;;;11.60;94.60;;;;;;2099070;28;20259;-63
2021/09/01 02:42:34;;;;;;;14.30;8.87;;;11.60;94.60;;;;;;2099047;28;20179;-63
2021/09/01 02:43:34;;;;;;;12.50;8.10;;;11.50;94.70;;;;;;2098993;28;20171;-63
2021/09/01 02:44:36;;;;;;;15.97;9.20;;;11.50;94.90;;;;;;2099193;28;20559;-63
2021/09/01 02:45:37;;;;;;;15.25;8.45;;;11.50;94.90;;;;;;2099036;28;20171;-63
2021/09/01 02:46:38;;;;;;;16.83;8.60;;;11.50;94.90;;;;;;2106553;28;20209;-63
2021/09/01 02:47:38;;;;;;;12.37;8.37;;;11.50;94.90;;;;;;2106885;28;20630;-61
2021/09/01 02:48:39;;;;;;;17.37;9.40;;;11.50;95.00;;;;;;2098965;28;20229;-63
2021/09/01 02:49:40;;;;;;;15.50;9.77;;;11.50;95.00;;;;;;2098866;28;20211;-63
2021/09/01 02:50:40;;;;;;;22.07;10.57;;;11.50;95.10;;;;;;2098742;28;20193;-63
2021/09/01 02:51:41;;;;;;;18.23;9.73;;;11.50;95.20;;;;;;2098505;28;20195;-63
2021/09/01 02:52:44;;;;;;;20.97;10.83;;;11.50;95.40;;;;;;2098428;28;20230;-63
2021/09/01 02:53:45;;;;;;;20.35;10.20;;;11.50;95.40;;;;;;2099103;28;20188;-63
2021/09/01 02:54:45;;;;;;;19.00;9.83;;;11.60;95.20;;;;;;2098956;28;20218;-63
2021/09/01 02:55:46;;;;;;;17.40;9.43;;;11.70;95.10;;;;;;2099024;28;20245;-63
2021/09/01 02:56:47;;;;;;;26.70;10.67;;;11.70;95.10;;;;;;2098886;28;20190;-62
2021/09/01 02:57:47;;;;;;;19.13;10.47;;;11.70;95.10;;;;;;2098325;28;20265;-62
2021/09/01 02:58:48;;;;;;;19.57;9.70;;;11.70;95.70;;;;;;2098174;28;20574;-63
2021/09/01 02:59:49;;;;;;;17.87;10.83;;;11.70;95.20;;;;;;2098910;28;20176;-63
2021/09/01 03:00:50;;;;;;;18.77;9.37;;;11.80;95.10;;;;;;2098720;28;20176;-63
2021/09/01 03:01:50;;;;;;;18.73;10.57;;;11.80;95.00;;;;;;2098954;28;20834;-63
2021/09/01 03:02:51;;;;;;;24.10;10.83;;;11.90;95.00;;;;;;2098892;28;20249;-62
2021/09/01 03:03:52;;;;;;;18.37;9.60;;;11.90;95.00;;;;;;2098901;28;20180;-63
2021/09/01 03:04:52;;;;;;;19.00;10.53;;;11.90;95.00;;;;;;2098994;28;20180;-63
2021/09/01 03:05:53;;;;;;;17.70;10.27;;;11.90;94.80;;;;;;2099048;28;20518;-62
2021/09/01 03:06:54;;;;;;;16.97;9.67;;;12.00;94.80;;;;;;2099005;28;20180;-63
2021/09/01 03:07:54;;;;;;;19.20;9.07;;;12.00;94.60;;;;;;2098972;28;20179;-63
2021/09/01 03:08:55;;;;;;;20.87;10.17;;;12.00;94.40;;;;;;2100336;28;20180;-63
2021/09/01 03:09:57;;;;;;;22.70;11.23;;;12.00;94.40;;;;;;2107222;28;20181;-63
2021/09/01 03:10:57;;;;;;;21.13;10.98;;;12.10;94.40;;;;;;2107149;28;20206;-63
2021/09/01 03:11:58;;;;;;;17.30;9.67;;;12.10;94.50;;;;;;2107207;28;20270;-63
2021/09/01 03:12:59;;;;;;;20.90;10.73;;;12.10;94.40;;;;;;2107234;28;20186;-63
2021/09/01 03:13:59;;;;;;;22.07;11.67;;;12.10;94.40;;;;;;2106689;28;20665;-62
2021/09/01 03:15:01;;;;;;;22.77;10.47;;;12.10;94.40;;;;;;2106398;28;20240;-63
2021/09/01 03:16:02;;;;;;;19.17;10.07;;;12.20;94.40;;;;;;2107281;28;20198;-63
2021/09/01 03:17:03;;;;;;;23.47;10.93;;;12.20;94.40;;;;;;2107016;28;20539;-63
2021/09/01 03:18:03;;;;;;;17.55;9.55;;;12.10;94.50;;;;;;2107112;28;20775;-63
2021/09/01 03:19:04;;;;;;;20.10;9.73;;;12.10;94.60;;;;;;2106920;28;20214;-63
2021/09/01 03:20:06;;;;;;;21.93;10.10;;;12.10;94.70;;;;;;2107123;28;20175;-63
2021/09/01 03:21:09;;;;;;;16.98;8.60;;;12.10;94.70;;;;;;2107126;28;20203;-63
2021/09/01 03:22:10;;;;;;;19.35;10.25;;;12.10;94.70;;;;;;2107167;28;20649;-63
2021/09/01 03:23:11;;;;;;;21.80;10.98;;;12.10;94.80;;;;;;2106995;28;20259;-63
2021/09/01 03:24:12;;;;;;;21.30;10.90;;;12.10;94.80;;;;;;2107078;28;20202;-62
2021/09/01 03:25:12;;;;;;;16.93;9.03;;;12.00;95.00;;;;;;2107038;28;20175;-63
2021/09/01 03:26:13;;;;;;;22.00;11.67;;;12.00;95.00;;;;;;2107106;28;20176;-63
2021/09/01 03:27:14;;;;;;;14.70;8.73;;;12.00;95.00;;;;;;2106996;28;20257;-63
2021/09/01 03:28:14;;;;;;;22.70;11.37;;;12.00;95.00;;;;;;2107110;28;20205;-63
2021/09/01 03:29:15;;;;;;;23.27;10.20;;;12.00;95.20;;;;;;2106929;28;20235;-63
2021/09/01 03:30:16;;;;;;;28.20;11.17;;;12.00;95.20;;;;;;2106885;28;20268;-63
2021/09/01 03:31:16;;;;;;;18.20;10.27;;;12.00;95.30;;;;;;2107044;28;20202;-63
2021/09/01 03:32:17;;;;;;;22.50;11.40;;;12.00;95.20;;;;;;2106978;28;20179;-63
2021/09/01 03:33:18;;;;;;;23.97;9.73;;;12.10;95.10;;;;;;2107030;28;20550;-63
2021/09/01 03:34:18;;;;;;;18.57;9.90;;;12.10;95.00;;;;;;2106978;28;20186;-63
2021/09/01 03:35:19;;;;;;;16.53;9.77;;;12.20;95.00;;;;;;2107008;28;20553;-63
2021/09/01 03:36:20;;;;;;;18.87;9.97;;;12.10;94.90;;;;;;2107013;28;20733;-62
2021/09/01 03:37:20;;;;;;;17.50;9.80;;;12.20;95.40;;;;;;2107022;28;20199;-63
2021/09/01 03:38:21;;;;;;;19.93;10.10;;;12.20;94.70;;;;;;2107017;28;20526;-63
2021/09/01 03:39:22;;;;;;;34.00;10.63;;;12.20;94.50;;;;;;2106765;28;20175;-62
2021/09/01 03:40:23;;;;;;;18.60;11.00;;;12.30;94.30;;;;;;2106320;28;20232;-63
2021/09/01 03:41:24;;;;;;;28.95;11.98;;;12.30;94.30;;;;;;2106407;28;20203;-63
2021/09/01 03:42:24;;;;;;;27.13;11.00;;;12.30;94.30;;;;;;2106832;28;20195;-62
2021/09/01 03:43:25;;;;;;;16.90;9.67;;;12.30;94.30;;;;;;2106933;28;20171;-63
2021/09/01 03:44:26;;;;;;;25.83;10.23;;;12.20;94.30;;;;;;2106762;28;20174;-63
2021/09/01 03:45:26;;;;;;;18.67;10.03;;;12.20;94.40;;;;;;2107042;28;20525;-63
2021/09/01 03:46:27;;;;;;;15.07;9.43;;;12.20;94.40;;;;;;2106860;28;20171;-63
2021/09/01 03:47:28;;;;;;;17.77;9.07;;;12.20;94.50;;;;;;2106282;28;20183;-63
2021/09/01 03:48:28;;;;;;;18.33;9.37;;;12.20;94.60;;;;;;2106804;28;20641;-63
2021/09/01 03:49:29;;;;;;;16.27;9.43;;;12.20;94.50;;;;;;2106749;28;20167;-63
2021/09/01 03:50:30;;;;;;;19.53;9.77;;;12.30;94.50;;;;;;2106884;28;20190;-63
2021/09/01 03:51:31;;;;;;;18.47;9.97;;;12.20;94.50;;;;;;2106779;28;20195;-63
2021/09/01 03:52:32;;;;;;;20.03;9.43;;;12.20;94.70;;;;;;2106809;28;20604;-63
2021/09/01 03:53:32;;;;;;;24.50;9.70;;;12.10;94.70;;;;;;2106395;28;20529;-61
2021/09/01 03:54:33;;;;;;;22.40;10.20;;;12.10;94.60;;;;;;2106161;28;20235;-63
2021/09/01 03:55:34;;;;;;;19.10;9.47;;;12.10;94.50;;;;;;2106911;28;20178;-63
2021/09/01 03:56:34;;;;;;;18.67;9.17;;;12.10;94.50;;;;;;2106795;28;20171;-63
2021/09/01 03:57:39;;;;;;;19.83;8.60;;;12.10;94.50;;;;;;2106794;28;20225;-63
2021/09/01 03:58:39;;;;;;;23.15;9.93;;;12.10;94.40;;;;;;2106068;28;20646;-63
2021/09/01 03:59:40;;;;;;;16.30;8.60;;;12.00;94.50;;;;;;2106007;28;20262;-63
2021/09/01 04:00:42;;;;;;;18.83;9.67;;;12.00;94.50;;;;;;2106744;28;20176;-63
2021/09/01 04:01:43;;;;;;;14.20;8.90;;;12.00;94.50;;;;;;2106717;28;20650;-63
2021/09/01 04:02:44;;;;;;;17.47;8.40;;;11.90;94.50;;;;;;2106770;28;20171;-62
2021/09/01 04:03:45;;;;;;;18.02;9.25;;;12.00;94.30;;;;;;2106924;28;20183;-62
2021/09/01 04:04:46;;;;;;;18.67;8.40;;;11.90;94.10;;;;;;2106879;28;20260;-63
2021/09/01 04:05:46;;;;;;;16.70;8.43;;;11.90;94.00;;;;;;2106928;28;20551;-63
2021/09/01 04:06:47;;;;;;;12.73;8.07;;;11.90;94.20;;;;;;2106840;28;20178;-63
2021/09/01 04:07:48;;;;;;;16.13;8.03;;;11.80;94.30;;;;;;2106762;28;20227;-63
2021/09/01 04:08:48;;;;;;;10.10;6.23;;;11.80;94.50;;;;;;2106605;28;20660;-63
2021/09/01 04:09:49;;;;;;;20.97;9.63;;;11.80;94.60;;;;;;2106726;28;20201;-63
2021/09/01 04:10:50;;;;;;;12.20;7.13;;;11.80;94.60;;;;;;2106719;28;20182;-63
2021/09/01 04:11:50;;;;;;;12.33;7.53;;;11.70;94.50;;;;;;2106801;28;20175;-63
2021/09/01 04:12:51;;;;;;;15.43;7.07;;;11.70;94.50;;;;;;2107043;28;20665;-63
2021/09/01 04:13:52;;;;;;;14.47;8.10;;;11.70;94.60;;;;;;2106233;28;20191;-63
2021/09/01 04:14:53;;;;;;;18.88;8.88;;;11.70;94.70;;;;;;2106190;28;20175;-62
2021/09/01 04:15:53;;;;;;;14.17;8.20;;;11.70;94.60;;;;;;2106558;28;20179;-63
2021/09/01 04:16:54;;;;;;;14.20;7.97;;;11.60;94.70;;;;;;2106699;28;20232;-63
2021/09/01 04:17:55;;;;;;;15.13;8.67;;;11.60;94.80;;;;;;2106578;28;20317;-62
2021/09/01 04:18:55;;;;;;;14.87;8.30;;;11.60;94.90;;;;;;2106268;28;20194;-62
2021/09/01 04:19:57;;;;;;;11.93;7.67;;;11.50;94.90;;;;;;2106508;28;20185;-63
2021/09/01 04:20:57;;;;;;;17.08;8.13;;;11.50;94.90;;;;;;2106577;28;20203;-63
2021/09/01 04:21:58;;;;;;;14.30;7.07;;;11.50;94.80;;;;;;2106538;28;20716;-63
2021/09/01 04:22:59;;;;;;;13.20;8.23;;;11.50;94.60;;;;;;2106538;28;20202;-61
2021/09/01 04:23:59;;;;;;;16.13;7.70;;;11.50;94.50;;;;;;2106495;28;20224;-63
2021/09/01 04:25:00;;;;;;;11.97;7.07;;;11.50;94.50;;;;;;2106578;28;20676;-63
2021/09/01 04:26:01;;;;;;;14.63;7.27;;;11.50;94.50;;;;;;2106471;28;20579;-62
2021/09/01 04:27:02;;;;;;;11.50;7.13;;;11.40;94.50;;;;;;2106477;28;20175;-62
2021/09/01 04:28:03;;;;;;;18.17;7.50;;;11.40;94.40;;;;;;2106504;28;20187;-62
2021/09/01 04:29:03;;;;;;;14.30;8.13;;;11.40;94.40;;;;;;2106327;28;20629;-62
2021/09/01 04:30:05;;;;;;;13.80;7.50;;;11.40;94.30;;;;;;2106465;28;20199;-62
2021/09/01 04:31:06;;;;;;;13.20;7.35;;;11.30;94.30;;;;;;2105936;28;20198;-63
2021/09/01 04:32:07;;;;;;;10.05;5.78;;;11.30;94.30;;;;;;2105768;28;20189;-63
2021/09/01 04:33:07;;;;;;;15.07;7.33;;;11.30;94.40;;;;;;2106466;28;20178;-62
2021/09/01 04:34:08;;;;;;;11.57;6.47;;;11.30;94.40;;;;;;2105823;28;20270;-63
2021/09/01 04:35:10;;;;;;;11.70;6.70;;;11.30;94.50;;;;;;2105847;28;20183;-63
2021/09/01 04:36:11;;;;;;;10.88;5.68;;;11.20;94.40;;;;;;2106367;28;20179;-62
2021/09/01 04:37:12;;;;;;;20.13;6.97;;;11.20;94.50;;;;;;2106431;28;20179;-63
2021/09/01 04:38:13;;;;;;;11.50;6.20;;;11.20;94.50;;;;;;2106646;28;20190;-62
2021/09/01 04:39:13;;;;;;;13.50;6.00;;;11.20;94.60;;;;;;2106265;28;20544;-63
2021/09/01 04:40:14;;;;;;;16.90;7.13;;;11.10;94.60;;;;;;2106635;28;20170;-63
2021/09/01 04:41:15;;;;;;;10.57;5.63;;;11.10;94.60;;;;;;2106565;28;20582;-62
2021/09/01 04:42:15;;;;;;;14.57;7.43;;;11.10;94.60;;;;;;2106720;28;20178;-63
2021/09/01 04:43:16;;;;;;;15.07;5.90;;;11.10;94.60;;;;;;2106410;28;20167;-62
2021/09/01 04:44:17;;;;;;;12.03;6.20;;;11.00;94.60;;;;;;2106614;28;20175;-63
2021/09/01 04:45:17;;;;;;;12.97;6.10;;;11.00;94.70;;;;;;2106445;28;20257;-62
2021/09/01 04:46:18;;;;;;;14.83;6.60;;;11.00;94.70;;;;;;2106563;28;20269;-62
2021/09/01 04:47:19;;;;;;;13.47;6.70;;;10.90;94.70;;;;;;2105896;28;20241;-63
2021/09/01 04:48:19;;;;;;;12.47;6.13;;;11.00;94.70;;;;;;2105981;28;20186;-63
2021/09/01 04:49:20;;;;;;;10.27;5.80;;;11.00;94.70;;;;;;2106178;28;20189;-63
2021/09/01 04:50:21;;;;;;;18.60;7.47;;;10.90;94.60;;;;;;2106422;28;20182;-63
2021/09/01 04:51:22;;;;;;;8.37;4.83;;;10.90;94.70;;;;;;2106116;28;20576;-62
2021/09/01 04:52:22;;;;;;;13.27;6.73;;;10.90;94.70;;;;;;2106496;28;20182;-63
2021/09/01 04:53:23;;;;;;;15.27;7.07;;;10.90;94.80;;;;;;2106443;28;20179;-63
2021/09/01 04:54:24;;;;;;;10.47;7.17;;;10.90;94.80;;;;;;2106645;28;20270;-62
2021/09/01 04:55:25;;;;;;;12.60;6.57;;;10.90;94.80;;;;;;2106446;28;20175;-63
2021/09/01 04:56:26;;;;;;;14.53;8.63;;;10.90;94.80;;;;;;2106569;28;20822;-63
2021/09/01 04:57:27;;;;;;;15.20;7.47;;;11.00;95.30;;;;;;2106306;28;20230;-63
2021/09/01 04:58:28;;;;;;;10.07;6.57;;;10.90;94.90;;;;;;2106946;28;20261;-62
2021/09/01 04:59:28;;;;;;;8.93;6.10;;;10.90;95.00;;;;;;2108945;28;20653;-62
2021/09/01 05:00:29;;;;;;;14.27;6.37;;;10.90;95.00;;;;;;2109360;28;20182;-63
2021/09/01 05:01:30;;;;;;;13.47;6.43;;;10.90;95.00;;;;;;2109165;28;20206;-62
2021/09/01 05:02:31;;;;;;;13.70;5.87;;;11.00;95.00;;;;;;2109390;28;20171;-62
2021/09/01 05:03:31;;;;;;;8.30;5.50;;;11.00;95.00;;;;;;2109323;28;20178;-63
2021/09/01 05:04:32;;;;;;;12.83;6.70;;;11.00;94.90;;;;;;2109377;28;20245;-62
2021/09/01 05:05:33;;;;;;;10.50;6.30;;;11.00;94.80;;;;;;2109230;28;20635;-63
2021/09/01 05:06:34;;;;;;;13.07;6.93;;;11.10;94.80;;;;;;2109424;28;20178;-62
2021/09/01 05:07:34;;;;;;;15.03;6.47;;;11.10;94.80;;;;;;2109113;28;20258;-62
2021/09/01 05:08:35;;;;;;;10.10;5.97;;;11.10;94.70;;;;;;2105939;28;20182;-63
2021/09/01 05:09:36;;;;;;;10.03;5.83;;;11.20;94.80;;;;;;2109068;28;20296;-63
2021/09/01 05:10:36;;;;;;;12.37;6.23;;;11.10;94.70;;;;;;2109162;28;20185;-62
2021/09/01 05:11:37;;;;;;;15.30;7.47;;;11.20;94.70;;;;;;2109194;28;20174;-62
2021/09/01 05:12:38;;;;;;;13.27;6.87;;;11.20;94.70;;;;;;2109244;28;20179;-62
2021/09/01 05:13:39;;;;;;;16.50;6.93;;;11.20;94.70;;;;;;2109349;28;20174;-61
2021/09/01 05:14:40;;;;;;;15.38;7.30;;;11.20;94.70;;;;;;2109348;28;20189;-63
2021/09/01 05:15:41;;;;;;;13.77;7.40;;;11.30;94.70;;;;;;2109177;28;20201;-63